< < Back
Terminal Aerodrome Forecast


Current Version              Previous Versions:   1  2  3  4  5  6  7  8  9  

Terminal Aerodrome Forecast

612
FTUS42 KTAE 310500
TAFABY
TAF
KABY 310539Z 3106/0106 00000KT P6SM SKC
     FM311500 32005KT P6SM SKC
     FM311800 31009G14KT P6SM SCT250
     FM010400 30011G16KT P6SM SKC=



Latest METAR

461
SAUS70 KWBC 311600
MTRABY
METAR KABY 311553Z 31004KT 10SM CLR 18/08 A2997 RMK AO2 SLP148 T01780083
PNO


USA.gov is the U.S. government's official web portal to all federal, state and local government web resources and services.